Point Mugu Naval Air Station (Naval Base Ventura Co)
KNTD : now visible

Airfield :











YOU CAN JOIN US ON...

 
LOGIN :

Register | Disclaimer

   EN    FR    IT 

 









Legend :    VFR   Marginal VFR   IFR   Intensive IFR   Very Intensive IFR
Visi :
Ceiling :
>= 8 km
>= 3000ft
5 to 8 km
1000 to 3000 ft
1500m to 5 km
500 to 1000 ft
800 to 1500m
200 to 500 ft
< 800m
< 200 ft
Symbols :   Thunderstorms  Fog  Heavy snow  Heavy precipitations  Wind > 20 kt






- Airport Elevation : 13 ft


KNTD - Point Mugu Naval Air Station (Naval Base Ventura Co)

CURRENT METAR :
  • 150752Z AUTO 34011KT 10SM CLR 13/06 A2995 RMK AO2 SLP144 T01280056 401830111 $

EXPIRED METARs :
  • 150652Z 32008KT 10SM CLR 12/07 A2995 RMK AO2 SLP144 T01170072 $
  • 150552Z 30009KT 10SM CLR 14/07 A2994 RMK AO2 SLP139 T01390067 10156 20133 51013 $

TAF TAF KNTD
Valid from the 15 at 07:00 until the 16 at 07:00 UTC


1507/1607 33012G20KT 9999 FEW250 QNH2990INS
TEMPO 1511/1517 01008KT AUTOMATED SENSOR METWATCH 1507 TIL 1514 T08/1512Z T18/1521Z FS30128



MET'MAP, your aeronautical weather chart ! - Copyright ORBIFLY December 2007 - Disclaimer

ORBIFLY MET'MAP TEAM :

Programming & Development : Alexandra Zaïnal
Concept & original design : Baudouin d'Aumeries
Assistance for programming : Marc-Olivier Méhu
Technical & hardware support : Manuel Goepfert

Contact : metmap@orbifly.com




SOURCES & CREDITS :

   NOAA       Earth
Advisory